sensor_id;sensor_type;location;lat;lon;timestamp;temperature;humidity
45012;DHT22;63444;48.148;11.542;2024-02-16T00:00:17;10.00;99.90
45012;DHT22;63444;48.148;11.542;2024-02-16T00:02:44;9.90;99.90
45012;DHT22;63444;48.148;11.542;2024-02-16T00:05:10;9.80;99.90
45012;DHT22;63444;48.148;11.542;2024-02-16T00:07:37;9.80;99.90
45012;DHT22;63444;48.148;11.542;2024-02-16T00:10:06;9.80;99.90
45012;DHT22;63444;48.148;11.542;2024-02-16T00:12:33;9.80;99.90
45012;DHT22;63444;48.148;11.542;2024-02-16T00:14:59;9.80;99.90
45012;DHT22;63444;48.148;11.542;2024-02-16T00:17:25;9.70;99.90
45012;DHT22;63444;48.148;11.542;2024-02-16T00:19:54;9.70;99.90
45012;DHT22;63444;48.148;11.542;2024-02-16T00:22:20;9.70;99.90
45012;DHT22;63444;48.148;11.542;2024-02-16T00:24:46;9.60;99.90
45012;DHT22;63444;48.148;11.542;2024-02-16T00:27:12;9.60;99.90
45012;DHT22;63444;48.148;11.542;2024-02-16T00:29:37;9.60;99.90
45012;DHT22;63444;48.148;11.542;2024-02-16T00:32:06;9.60;99.90
45012;DHT22;63444;48.148;11.542;2024-02-16T00:34:33;9.60;99.90
45012;DHT22;63444;48.148;11.542;2024-02-16T00:36:58;9.60;99.90
45012;DHT22;63444;48.148;11.542;2024-02-16T00:39:24;9.50;99.90
45012;DHT22;63444;48.148;11.542;2024-02-16T00:41:50;9.50;99.90
45012;DHT22;63444;48.148;11.542;2024-02-16T00:44:16;9.50;99.90
45012;DHT22;63444;48.148;11.542;2024-02-16T00:46:43;9.50;99.90
45012;DHT22;63444;48.148;11.542;2024-02-16T00:49:09;9.50;99.90
45012;DHT22;63444;48.148;11.542;2024-02-16T00:51:36;9.50;99.90
45012;DHT22;63444;48.148;11.542;2024-02-16T00:54:02;9.50;99.90
45012;DHT22;63444;48.148;11.542;2024-02-16T00:56:29;9.50;99.90
45012;DHT22;63444;48.148;11.542;2024-02-16T00:58:54;9.50;99.90
45012;DHT22;63444;48.148;11.542;2024-02-16T01:01:20;9.50;99.90
45012;DHT22;63444;48.148;11.542;2024-02-16T01:03:50;9.50;99.90
45012;DHT22;63444;48.148;11.542;2024-02-16T01:06:17;9.50;99.90
45012;DHT22;63444;48.148;11.542;2024-02-16T01:08:43;9.50;99.90
45012;DHT22;63444;48.148;11.542;2024-02-16T01:11:09;9.50;99.90
45012;DHT22;63444;48.148;11.542;2024-02-16T01:13:34;9.50;99.90
45012;DHT22;63444;48.148;11.542;2024-02-16T01:16:00;9.50;99.90
45012;DHT22;63444;48.148;11.542;2024-02-16T01:18:28;9.50;99.90
45012;DHT22;63444;48.148;11.542;2024-02-16T01:20:54;9.40;99.90
45012;DHT22;63444;48.148;11.542;2024-02-16T01:23:20;9.40;99.90
45012;DHT22;63444;48.148;11.542;2024-02-16T01:25:46;9.40;99.90
45012;DHT22;63444;48.148;11.542;2024-02-16T01:28:12;9.40;99.90
45012;DHT22;63444;48.148;11.542;2024-02-16T01:30:38;9.40;99.90
45012;DHT22;63444;48.148;11.542;2024-02-16T01:33:05;9.50;99.90
45012;DHT22;63444;48.148;11.542;2024-02-16T01:35:32;9.50;99.90
45012;DHT22;63444;48.148;11.542;2024-02-16T01:37:57;9.50;99.90
45012;DHT22;63444;48.148;11.542;2024-02-16T01:40:23;9.50;99.90
45012;DHT22;63444;48.148;11.542;2024-02-16T01:42:51;9.50;99.90
45012;DHT22;63444;48.148;11.542;2024-02-16T01:45:18;9.50;99.90
45012;DHT22;63444;48.148;11.542;2024-02-16T01:47:46;9.50;99.90
45012;DHT22;63444;48.148;11.542;2024-02-16T01:50:14;9.50;99.90
45012;DHT22;63444;48.148;11.542;2024-02-16T01:52:39;9.50;99.90
45012;DHT22;63444;48.148;11.542;2024-02-16T01:55:06;9.50;99.90
45012;DHT22;63444;48.148;11.542;2024-02-16T01:57:36;9.50;99.90
45012;DHT22;63444;48.148;11.542;2024-02-16T02:00:02;9.50;99.90
45012;DHT22;63444;48.148;11.542;2024-02-16T02:02:28;9.50;99.90
45012;DHT22;63444;48.148;11.542;2024-02-16T02:04:54;9.50;99.90
45012;DHT22;63444;48.148;11.542;2024-02-16T02:07:25;9.50;99.90
45012;DHT22;63444;48.148;11.542;2024-02-16T02:09:52;9.50;99.90
45012;DHT22;63444;48.148;11.542;2024-02-16T02:12:17;9.50;99.90
45012;DHT22;63444;48.148;11.542;2024-02-16T02:14:43;9.50;99.90
45012;DHT22;63444;48.148;11.542;2024-02-16T02:17:09;9.60;99.90
45012;DHT22;63444;48.148;11.542;2024-02-16T02:19:35;9.60;99.90
45012;DHT22;63444;48.148;11.542;2024-02-16T02:22:01;9.50;99.90
45012;DHT22;63444;48.148;11.542;2024-02-16T02:24:27;9.50;99.90
45012;DHT22;63444;48.148;11.542;2024-02-16T02:26:52;9.50;99.90
45012;DHT22;63444;48.148;11.542;2024-02-16T02:29:18;9.60;99.90
45012;DHT22;63444;48.148;11.542;2024-02-16T02:31:43;9.50;99.90
45012;DHT22;63444;48.148;11.542;2024-02-16T02:34:09;9.50;99.90
45012;DHT22;63444;48.148;11.542;2024-02-16T02:36:36;9.50;99.90
45012;DHT22;63444;48.148;11.542;2024-02-16T02:39:01;9.50;99.90
45012;DHT22;63444;48.148;11.542;2024-02-16T02:41:27;9.40;99.90
45012;DHT22;63444;48.148;11.542;2024-02-16T02:43:52;9.40;99.90
45012;DHT22;63444;48.148;11.542;2024-02-16T02:46:18;9.30;99.90
45012;DHT22;63444;48.148;11.542;2024-02-16T02:48:45;9.30;99.90
45012;DHT22;63444;48.148;11.542;2024-02-16T02:53:38;9.30;99.90
45012;DHT22;63444;48.148;11.542;2024-02-16T02:56:04;9.30;99.90
45012;DHT22;63444;48.148;11.542;2024-02-16T02:58:30;9.30;99.90
45012;DHT22;63444;48.148;11.542;2024-02-16T03:00:56;9.30;99.90
45012;DHT22;63444;48.148;11.542;2024-02-16T03:03:22;9.30;99.90
45012;DHT22;63444;48.148;11.542;2024-02-16T03:05:49;9.40;99.90
45012;DHT22;63444;48.148;11.542;2024-02-16T03:08:15;9.30;99.90
45012;DHT22;63444;48.148;11.542;2024-02-16T03:10:41;9.30;99.90
45012;DHT22;63444;48.148;11.542;2024-02-16T03:13:06;9.30;99.90
45012;DHT22;63444;48.148;11.542;2024-02-16T03:15:34;9.30;99.90
45012;DHT22;63444;48.148;11.542;2024-02-16T03:18:01;9.30;99.90
45012;DHT22;63444;48.148;11.542;2024-02-16T03:20:27;9.20;99.90
45012;DHT22;63444;48.148;11.542;2024-02-16T03:22:53;9.20;99.90
45012;DHT22;63444;48.148;11.542;2024-02-16T03:25:18;9.20;99.90
45012;DHT22;63444;48.148;11.542;2024-02-16T03:27:44;9.20;99.90
45012;DHT22;63444;48.148;11.542;2024-02-16T03:30:10;9.20;99.90
45012;DHT22;63444;48.148;11.542;2024-02-16T03:32:36;9.20;99.90
45012;DHT22;63444;48.148;11.542;2024-02-16T03:35:01;9.20;99.90
45012;DHT22;63444;48.148;11.542;2024-02-16T03:37:27;9.20;99.90
45012;DHT22;63444;48.148;11.542;2024-02-16T03:39:53;9.20;99.90
45012;DHT22;63444;48.148;11.542;2024-02-16T03:42:19;9.20;99.90
45012;DHT22;63444;48.148;11.542;2024-02-16T03:44:45;9.20;99.90
45012;DHT22;63444;48.148;11.542;2024-02-16T03:47:11;9.10;99.90
45012;DHT22;63444;48.148;11.542;2024-02-16T03:49:38;9.20;99.90
45012;DHT22;63444;48.148;11.542;2024-02-16T03:52:04;9.10;99.90
45012;DHT22;63444;48.148;11.542;2024-02-16T03:54:30;9.10;99.90
45012;DHT22;63444;48.148;11.542;2024-02-16T03:56:56;9.10;99.90
45012;DHT22;63444;48.148;11.542;2024-02-16T03:59:23;9.10;99.90
45012;DHT22;63444;48.148;11.542;2024-02-16T04:01:49;9.10;99.90
45012;DHT22;63444;48.148;11.542;2024-02-16T04:04:15;9.10;99.90
45012;DHT22;63444;48.148;11.542;2024-02-16T04:06:41;9.10;99.90
45012;DHT22;63444;48.148;11.542;2024-02-16T04:09:07;9.20;99.90
45012;DHT22;63444;48.148;11.542;2024-02-16T04:11:33;9.10;99.90
45012;DHT22;63444;48.148;11.542;2024-02-16T04:13:59;9.20;99.90
45012;DHT22;63444;48.148;11.542;2024-02-16T04:16:25;9.10;99.90
45012;DHT22;63444;48.148;11.542;2024-02-16T04:18:51;9.10;99.90
45012;DHT22;63444;48.148;11.542;2024-02-16T04:21:17;9.20;99.90
45012;DHT22;63444;48.148;11.542;2024-02-16T04:23:43;9.20;99.90
45012;DHT22;63444;48.148;11.542;2024-02-16T04:26:08;9.20;99.90
45012;DHT22;63444;48.148;11.542;2024-02-16T04:28:35;9.20;99.90
45012;DHT22;63444;48.148;11.542;2024-02-16T04:31:00;9.20;99.90
45012;DHT22;63444;48.148;11.542;2024-02-16T04:33:26;9.20;99.90
45012;DHT22;63444;48.148;11.542;2024-02-16T04:35:52;9.20;99.90
45012;DHT22;63444;48.148;11.542;2024-02-16T04:38:18;9.20;99.90
45012;DHT22;63444;48.148;11.542;2024-02-16T04:40:43;9.20;99.90
45012;DHT22;63444;48.148;11.542;2024-02-16T04:43:09;9.20;99.90
45012;DHT22;63444;48.148;11.542;2024-02-16T04:45:35;9.20;99.90
45012;DHT22;63444;48.148;11.542;2024-02-16T04:48:08;9.20;99.90
45012;DHT22;63444;48.148;11.542;2024-02-16T04:50:34;9.20;99.90
45012;DHT22;63444;48.148;11.542;2024-02-16T04:53:00;9.20;99.90
45012;DHT22;63444;48.148;11.542;2024-02-16T04:55:29;9.20;99.90
45012;DHT22;63444;48.148;11.542;2024-02-16T04:57:56;9.20;99.90
45012;DHT22;63444;48.148;11.542;2024-02-16T05:00:22;9.30;99.90
45012;DHT22;63444;48.148;11.542;2024-02-16T05:02:48;9.30;99.90
45012;DHT22;63444;48.148;11.542;2024-02-16T05:05:14;9.20;99.90
45012;DHT22;63444;48.148;11.542;2024-02-16T05:07:46;9.20;99.90
45012;DHT22;63444;48.148;11.542;2024-02-16T05:10:12;9.20;99.90
45012;DHT22;63444;48.148;11.542;2024-02-16T05:12:38;9.30;99.90
45012;DHT22;63444;48.148;11.542;2024-02-16T05:15:04;9.30;99.90
45012;DHT22;63444;48.148;11.542;2024-02-16T05:17:31;9.20;99.90
45012;DHT22;63444;48.148;11.542;2024-02-16T05:19:56;9.30;99.90
45012;DHT22;63444;48.148;11.542;2024-02-16T05:22:22;9.30;99.90
45012;DHT22;63444;48.148;11.542;2024-02-16T05:24:48;9.30;99.90
45012;DHT22;63444;48.148;11.542;2024-02-16T05:27:13;9.30;99.90
45012;DHT22;63444;48.148;11.542;2024-02-16T05:29:40;9.30;99.90
45012;DHT22;63444;48.148;11.542;2024-02-16T05:32:06;9.30;99.90
45012;DHT22;63444;48.148;11.542;2024-02-16T05:34:32;9.30;99.90
45012;DHT22;63444;48.148;11.542;2024-02-16T05:37:06;9.30;99.90
45012;DHT22;63444;48.148;11.542;2024-02-16T05:39:38;9.30;99.90
45012;DHT22;63444;48.148;11.542;2024-02-16T05:42:19;9.30;99.90
45012;DHT22;63444;48.148;11.542;2024-02-16T05:44:47;9.30;99.90
45012;DHT22;63444;48.148;11.542;2024-02-16T05:47:15;9.30;99.90
45012;DHT22;63444;48.148;11.542;2024-02-16T05:49:41;9.30;99.90
45012;DHT22;63444;48.148;11.542;2024-02-16T05:52:06;9.40;99.90
45012;DHT22;63444;48.148;11.542;2024-02-16T05:54:47;9.30;99.90
45012;DHT22;63444;48.148;11.542;2024-02-16T05:57:14;9.40;99.90
45012;DHT22;63444;48.148;11.542;2024-02-16T05:59:41;9.40;99.90
45012;DHT22;63444;48.148;11.542;2024-02-16T06:02:07;9.40;99.90
45012;DHT22;63444;48.148;11.542;2024-02-16T06:04:36;9.40;99.90
45012;DHT22;63444;48.148;11.542;2024-02-16T06:07:02;9.40;99.90
45012;DHT22;63444;48.148;11.542;2024-02-16T06:09:28;9.40;99.90
45012;DHT22;63444;48.148;11.542;2024-02-16T06:12:01;9.40;99.90
45012;DHT22;63444;48.148;11.542;2024-02-16T06:14:29;9.50;99.90
45012;DHT22;63444;48.148;11.542;2024-02-16T06:16:54;9.40;99.90
45012;DHT22;63444;48.148;11.542;2024-02-16T06:19:20;9.40;99.90
45012;DHT22;63444;48.148;11.542;2024-02-16T06:21:46;9.40;99.90
45012;DHT22;63444;48.148;11.542;2024-02-16T06:24:12;9.40;99.90
45012;DHT22;63444;48.148;11.542;2024-02-16T06:26:37;9.50;99.90
45012;DHT22;63444;48.148;11.542;2024-02-16T06:29:03;9.40;99.90
45012;DHT22;63444;48.148;11.542;2024-02-16T06:31:28;9.50;99.90
45012;DHT22;63444;48.148;11.542;2024-02-16T06:33:54;9.50;99.90
45012;DHT22;63444;48.148;11.542;2024-02-16T06:36:21;9.50;99.90
45012;DHT22;63444;48.148;11.542;2024-02-16T06:38:47;9.50;99.90
45012;DHT22;63444;48.148;11.542;2024-02-16T06:41:13;9.50;99.90
45012;DHT22;63444;48.148;11.542;2024-02-16T06:43:38;9.50;99.90
45012;DHT22;63444;48.148;11.542;2024-02-16T06:46:04;9.50;99.90
45012;DHT22;63444;48.148;11.542;2024-02-16T06:48:30;9.50;99.90
45012;DHT22;63444;48.148;11.542;2024-02-16T06:50:56;9.60;99.90
45012;DHT22;63444;48.148;11.542;2024-02-16T06:53:21;9.60;99.90
45012;DHT22;63444;48.148;11.542;2024-02-16T06:55:47;9.60;99.90
45012;DHT22;63444;48.148;11.542;2024-02-16T06:58:13;9.60;99.90
45012;DHT22;63444;48.148;11.542;2024-02-16T07:00:38;9.70;99.90
45012;DHT22;63444;48.148;11.542;2024-02-16T07:03:07;9.70;99.90
45012;DHT22;63444;48.148;11.542;2024-02-16T07:05:34;9.70;99.90
45012;DHT22;63444;48.148;11.542;2024-02-16T07:07:59;9.80;99.90
45012;DHT22;63444;48.148;11.542;2024-02-16T07:10:25;9.80;99.90
45012;DHT22;63444;48.148;11.542;2024-02-16T07:12:51;9.80;99.90
45012;DHT22;63444;48.148;11.542;2024-02-16T07:15:16;9.90;99.90
45012;DHT22;63444;48.148;11.542;2024-02-16T07:17:42;9.90;99.90
45012;DHT22;63444;48.148;11.542;2024-02-16T07:20:08;9.90;99.90
45012;DHT22;63444;48.148;11.542;2024-02-16T07:22:33;10.00;99.90
45012;DHT22;63444;48.148;11.542;2024-02-16T07:24:59;10.00;99.90
45012;DHT22;63444;48.148;11.542;2024-02-16T07:27:33;10.00;99.90
45012;DHT22;63444;48.148;11.542;2024-02-16T07:29:59;10.10;99.90
45012;DHT22;63444;48.148;11.542;2024-02-16T07:32:24;10.10;99.90
45012;DHT22;63444;48.148;11.542;2024-02-16T07:34:50;10.20;99.90
45012;DHT22;63444;48.148;11.542;2024-02-16T07:37:16;10.20;99.90
45012;DHT22;63444;48.148;11.542;2024-02-16T07:39:42;10.20;99.90
45012;DHT22;63444;48.148;11.542;2024-02-16T07:42:08;10.30;99.90
45012;DHT22;63444;48.148;11.542;2024-02-16T07:44:38;10.30;99.90
45012;DHT22;63444;48.148;11.542;2024-02-16T07:47:04;10.30;99.90
45012;DHT22;63444;48.148;11.542;2024-02-16T07:49:30;10.40;99.90
45012;DHT22;63444;48.148;11.542;2024-02-16T07:51:55;10.40;99.90
45012;DHT22;63444;48.148;11.542;2024-02-16T07:54:21;10.40;99.90
45012;DHT22;63444;48.148;11.542;2024-02-16T07:56:47;10.50;99.90
45012;DHT22;63444;48.148;11.542;2024-02-16T07:59:13;10.60;99.90
45012;DHT22;63444;48.148;11.542;2024-02-16T08:01:38;10.60;99.90
45012;DHT22;63444;48.148;11.542;2024-02-16T08:04:04;10.60;99.90
45012;DHT22;63444;48.148;11.542;2024-02-16T08:06:30;10.60;99.90
45012;DHT22;63444;48.148;11.542;2024-02-16T08:08:55;10.70;99.90
45012;DHT22;63444;48.148;11.542;2024-02-16T08:11:22;10.70;99.90
45012;DHT22;63444;48.148;11.542;2024-02-16T08:13:48;10.80;99.90
45012;DHT22;63444;48.148;11.542;2024-02-16T08:16:14;10.80;99.90
45012;DHT22;63444;48.148;11.542;2024-02-16T08:18:39;10.80;99.90
45012;DHT22;63444;48.148;11.542;2024-02-16T08:21:05;10.80;99.90
45012;DHT22;63444;48.148;11.542;2024-02-16T08:23:31;10.90;99.90
45012;DHT22;63444;48.148;11.542;2024-02-16T08:25:56;10.90;99.90
45012;DHT22;63444;48.148;11.542;2024-02-16T08:28:23;11.00;99.90
45012;DHT22;63444;48.148;11.542;2024-02-16T08:30:50;11.00;99.90
45012;DHT22;63444;48.148;11.542;2024-02-16T08:33:15;11.10;99.90
45012;DHT22;63444;48.148;11.542;2024-02-16T08:35:41;11.10;99.90
45012;DHT22;63444;48.148;11.542;2024-02-16T08:38:07;11.10;99.90
45012;DHT22;63444;48.148;11.542;2024-02-16T08:40:37;11.20;99.90
45012;DHT22;63444;48.148;11.542;2024-02-16T08:43:06;11.20;99.90
45012;DHT22;63444;48.148;11.542;2024-02-16T08:45:35;11.30;99.90
45012;DHT22;63444;48.148;11.542;2024-02-16T08:48:00;11.30;99.90
45012;DHT22;63444;48.148;11.542;2024-02-16T08:50:34;11.40;99.90
45012;DHT22;63444;48.148;11.542;2024-02-16T08:53:00;11.40;99.90
45012;DHT22;63444;48.148;11.542;2024-02-16T08:55:26;11.50;99.90
45012;DHT22;63444;48.148;11.542;2024-02-16T08:57:52;11.50;99.90
45012;DHT22;63444;48.148;11.542;2024-02-16T09:00:17;11.60;99.90
45012;DHT22;63444;48.148;11.542;2024-02-16T09:02:43;11.60;99.90
45012;DHT22;63444;48.148;11.542;2024-02-16T09:05:10;11.70;99.90
45012;DHT22;63444;48.148;11.542;2024-02-16T09:07:36;11.70;99.90
45012;DHT22;63444;48.148;11.542;2024-02-16T09:10:02;11.80;99.90
45012;DHT22;63444;48.148;11.542;2024-02-16T09:12:29;11.80;99.90
45012;DHT22;63444;48.148;11.542;2024-02-16T09:14:55;11.80;99.90
45012;DHT22;63444;48.148;11.542;2024-02-16T09:17:21;11.90;99.90
45012;DHT22;63444;48.148;11.542;2024-02-16T09:19:46;11.90;99.90
45012;DHT22;63444;48.148;11.542;2024-02-16T09:22:12;12.00;99.90
45012;DHT22;63444;48.148;11.542;2024-02-16T09:24:37;12.10;99.90
45012;DHT22;63444;48.148;11.542;2024-02-16T09:27:03;12.10;99.90
45012;DHT22;63444;48.148;11.542;2024-02-16T09:29:30;12.20;99.90
45012;DHT22;63444;48.148;11.542;2024-02-16T09:31:56;12.30;99.90
45012;DHT22;63444;48.148;11.542;2024-02-16T09:34:21;12.40;99.90
45012;DHT22;63444;48.148;11.542;2024-02-16T09:36:47;12.40;99.90
45012;DHT22;63444;48.148;11.542;2024-02-16T09:39:13;12.50;99.90
45012;DHT22;63444;48.148;11.542;2024-02-16T09:41:42;12.60;99.90
45012;DHT22;63444;48.148;11.542;2024-02-16T09:44:09;12.70;99.90
45012;DHT22;63444;48.148;11.542;2024-02-16T09:46:35;12.70;99.90
45012;DHT22;63444;48.148;11.542;2024-02-16T09:49:03;12.80;99.90
45012;DHT22;63444;48.148;11.542;2024-02-16T09:51:30;12.80;99.90
45012;DHT22;63444;48.148;11.542;2024-02-16T09:53:56;12.90;99.90
45012;DHT22;63444;48.148;11.542;2024-02-16T09:56:22;13.00;99.90
45012;DHT22;63444;48.148;11.542;2024-02-16T09:58:47;13.10;99.90
45012;DHT22;63444;48.148;11.542;2024-02-16T10:01:20;13.20;99.90
45012;DHT22;63444;48.148;11.542;2024-02-16T10:03:51;13.30;99.90
45012;DHT22;63444;48.148;11.542;2024-02-16T10:06:17;13.50;99.90
45012;DHT22;63444;48.148;11.542;2024-02-16T10:08:53;13.60;99.90
45012;DHT22;63444;48.148;11.542;2024-02-16T10:11:21;13.70;99.90
45012;DHT22;63444;48.148;11.542;2024-02-16T10:13:57;13.80;99.90
45012;DHT22;63444;48.148;11.542;2024-02-16T10:16:23;14.00;99.90
45012;DHT22;63444;48.148;11.542;2024-02-16T10:18:49;14.20;99.90
45012;DHT22;63444;48.148;11.542;2024-02-16T10:21:27;14.30;99.90
45012;DHT22;63444;48.148;11.542;2024-02-16T10:24:01;14.40;99.90
45012;DHT22;63444;48.148;11.542;2024-02-16T10:26:28;14.60;99.90
45012;DHT22;63444;48.148;11.542;2024-02-16T10:28:55;14.70;99.90
45012;DHT22;63444;48.148;11.542;2024-02-16T10:31:25;14.80;99.90
45012;DHT22;63444;48.148;11.542;2024-02-16T10:36:27;15.10;99.90
45012;DHT22;63444;48.148;11.542;2024-02-16T10:38:56;15.20;99.60
45012;DHT22;63444;48.148;11.542;2024-02-16T10:41:26;15.30;99.90
45012;DHT22;63444;48.148;11.542;2024-02-16T10:43:54;15.40;99.90
45012;DHT22;63444;48.148;11.542;2024-02-16T10:46:20;15.50;99.90
45012;DHT22;63444;48.148;11.542;2024-02-16T10:48:46;15.60;99.90
45012;DHT22;63444;48.148;11.542;2024-02-16T10:51:14;15.70;98.90
45012;DHT22;63444;48.148;11.542;2024-02-16T10:53:42;16.00;96.80
45012;DHT22;63444;48.148;11.542;2024-02-16T10:56:09;16.20;96.70
45012;DHT22;63444;48.148;11.542;2024-02-16T10:58:35;16.40;97.00
45012;DHT22;63444;48.148;11.542;2024-02-16T11:01:14;16.40;97.30
45012;DHT22;63444;48.148;11.542;2024-02-16T11:03:41;16.50;96.70
45012;DHT22;63444;48.148;11.542;2024-02-16T11:06:16;16.50;97.20
45012;DHT22;63444;48.148;11.542;2024-02-16T11:08:42;16.50;96.90
45012;DHT22;63444;48.148;11.542;2024-02-16T11:11:08;16.50;96.70
45012;DHT22;63444;48.148;11.542;2024-02-16T11:13:37;16.60;97.10
45012;DHT22;63444;48.148;11.542;2024-02-16T11:16:07;16.70;96.90
45012;DHT22;63444;48.148;11.542;2024-02-16T11:18:43;16.80;96.60
45012;DHT22;63444;48.148;11.542;2024-02-16T11:21:14;16.90;95.30
45012;DHT22;63444;48.148;11.542;2024-02-16T11:23:40;17.20;95.40
45012;DHT22;63444;48.148;11.542;2024-02-16T11:26:09;17.30;95.90
45012;DHT22;63444;48.148;11.542;2024-02-16T11:28:40;17.30;95.90
45012;DHT22;63444;48.148;11.542;2024-02-16T11:31:06;17.50;95.60
45012;DHT22;63444;48.148;11.542;2024-02-16T11:33:33;17.60;94.90
45012;DHT22;63444;48.148;11.542;2024-02-16T11:36:00;17.80;94.40
45012;DHT22;63444;48.148;11.542;2024-02-16T11:38:27;17.90;94.00
45012;DHT22;63444;48.148;11.542;2024-02-16T11:43:25;18.30;93.90
45012;DHT22;63444;48.148;11.542;2024-02-16T11:45:51;18.40;93.90
45012;DHT22;63444;48.148;11.542;2024-02-16T11:48:26;18.60;93.40
45012;DHT22;63444;48.148;11.542;2024-02-16T11:51:03;18.70;93.50
45012;DHT22;63444;48.148;11.542;2024-02-16T11:53:29;18.60;94.00
45012;DHT22;63444;48.148;11.542;2024-02-16T11:55:55;18.50;94.20
45012;DHT22;63444;48.148;11.542;2024-02-16T11:58:21;18.50;94.40
45012;DHT22;63444;48.148;11.542;2024-02-16T12:00:48;18.50;93.90
45012;DHT22;63444;48.148;11.542;2024-02-16T12:03:24;18.60;94.20
45012;DHT22;63444;48.148;11.542;2024-02-16T12:05:54;18.70;94.10
45012;DHT22;63444;48.148;11.542;2024-02-16T12:08:21;18.80;93.70
45012;DHT22;63444;48.148;11.542;2024-02-16T12:10:51;18.90;93.70
45012;DHT22;63444;48.148;11.542;2024-02-16T12:13:20;18.80;93.70
45012;DHT22;63444;48.148;11.542;2024-02-16T12:15:49;18.90;93.70
45012;DHT22;63444;48.148;11.542;2024-02-16T12:18:22;18.90;93.60
45012;DHT22;63444;48.148;11.542;2024-02-16T12:23:23;18.90;93.80
45012;DHT22;63444;48.148;11.542;2024-02-16T12:25:49;18.90;93.70
45012;DHT22;63444;48.148;11.542;2024-02-16T12:28:15;18.80;93.90
45012;DHT22;63444;48.148;11.542;2024-02-16T12:30:40;18.80;94.00
45012;DHT22;63444;48.148;11.542;2024-02-16T12:33:06;18.80;94.10
45012;DHT22;63444;48.148;11.542;2024-02-16T12:35:32;18.70;94.30
45012;DHT22;63444;48.148;11.542;2024-02-16T12:37:57;18.70;94.20
45012;DHT22;63444;48.148;11.542;2024-02-16T12:40:23;18.60;93.90
45012;DHT22;63444;48.148;11.542;2024-02-16T12:42:49;18.60;93.80
45012;DHT22;63444;48.148;11.542;2024-02-16T12:45:14;18.50;93.70
45012;DHT22;63444;48.148;11.542;2024-02-16T12:47:41;18.50;93.90
45012;DHT22;63444;48.148;11.542;2024-02-16T12:50:07;18.40;93.80
45012;DHT22;63444;48.148;11.542;2024-02-16T12:52:33;18.40;94.00
45012;DHT22;63444;48.148;11.542;2024-02-16T12:55:01;18.40;94.00
45012;DHT22;63444;48.148;11.542;2024-02-16T12:57:26;18.40;94.40
45012;DHT22;63444;48.148;11.542;2024-02-16T12:59:54;18.30;94.40
45012;DHT22;63444;48.148;11.542;2024-02-16T13:02:19;18.30;94.60
45012;DHT22;63444;48.148;11.542;2024-02-16T13:04:45;18.30;94.10
45012;DHT22;63444;48.148;11.542;2024-02-16T13:07:11;18.30;93.70
45012;DHT22;63444;48.148;11.542;2024-02-16T13:09:36;18.30;93.00
45012;DHT22;63444;48.148;11.542;2024-02-16T13:12:02;18.30;93.10
45012;DHT22;63444;48.148;11.542;2024-02-16T13:14:28;18.30;93.20
45012;DHT22;63444;48.148;11.542;2024-02-16T13:16:54;18.20;93.30
45012;DHT22;63444;48.148;11.542;2024-02-16T13:19:19;18.20;93.40
45012;DHT22;63444;48.148;11.542;2024-02-16T13:21:45;18.20;93.60
45012;DHT22;63444;48.148;11.542;2024-02-16T13:24:10;18.20;93.90
45012;DHT22;63444;48.148;11.542;2024-02-16T13:26:36;18.20;94.30
45012;DHT22;63444;48.148;11.542;2024-02-16T13:29:01;18.20;94.60
45012;DHT22;63444;48.148;11.542;2024-02-16T13:31:28;18.20;94.70
45012;DHT22;63444;48.148;11.542;2024-02-16T13:33:54;18.20;94.80
45012;DHT22;63444;48.148;11.542;2024-02-16T13:36:20;18.20;95.00
45012;DHT22;63444;48.148;11.542;2024-02-16T13:38:46;18.10;95.20
45012;DHT22;63444;48.148;11.542;2024-02-16T13:41:12;18.10;95.20
45012;DHT22;63444;48.148;11.542;2024-02-16T13:43:37;18.10;95.40
45012;DHT22;63444;48.148;11.542;2024-02-16T13:46:03;18.10;95.30
45012;DHT22;63444;48.148;11.542;2024-02-16T13:48:29;18.10;95.40
45012;DHT22;63444;48.148;11.542;2024-02-16T13:50:55;18.00;95.70
45012;DHT22;63444;48.148;11.542;2024-02-16T13:53:21;18.00;96.10
45012;DHT22;63444;48.148;11.542;2024-02-16T13:55:48;18.00;96.10
45012;DHT22;63444;48.148;11.542;2024-02-16T13:58:14;18.00;96.10
45012;DHT22;63444;48.148;11.542;2024-02-16T14:00:40;18.00;96.20
45012;DHT22;63444;48.148;11.542;2024-02-16T14:03:10;17.90;96.40
45012;DHT22;63444;48.148;11.542;2024-02-16T14:05:37;17.90;96.20
45012;DHT22;63444;48.148;11.542;2024-02-16T14:08:03;17.90;95.60
45012;DHT22;63444;48.148;11.542;2024-02-16T14:10:30;17.80;95.50
45012;DHT22;63444;48.148;11.542;2024-02-16T14:12:57;17.70;95.70
45012;DHT22;63444;48.148;11.542;2024-02-16T14:15:23;17.60;95.80
45012;DHT22;63444;48.148;11.542;2024-02-16T14:17:49;17.60;95.80
45012;DHT22;63444;48.148;11.542;2024-02-16T14:20:14;17.60;95.90
45012;DHT22;63444;48.148;11.542;2024-02-16T14:22:40;17.50;96.20
45012;DHT22;63444;48.148;11.542;2024-02-16T14:25:06;17.40;96.30
45012;DHT22;63444;48.148;11.542;2024-02-16T14:27:31;17.40;96.20
45012;DHT22;63444;48.148;11.542;2024-02-16T14:29:58;17.40;96.20
45012;DHT22;63444;48.148;11.542;2024-02-16T14:32:23;17.30;96.50
45012;DHT22;63444;48.148;11.542;2024-02-16T14:34:49;17.40;96.50
45012;DHT22;63444;48.148;11.542;2024-02-16T14:37:15;17.30;96.70
45012;DHT22;63444;48.148;11.542;2024-02-16T14:39:40;17.30;96.60
45012;DHT22;63444;48.148;11.542;2024-02-16T14:42:06;17.40;96.70
45012;DHT22;63444;48.148;11.542;2024-02-16T14:44:31;17.40;96.60
45012;DHT22;63444;48.148;11.542;2024-02-16T14:46:57;17.40;96.70
45012;DHT22;63444;48.148;11.542;2024-02-16T14:49:23;17.40;96.90
45012;DHT22;63444;48.148;11.542;2024-02-16T14:51:50;17.40;97.00
45012;DHT22;63444;48.148;11.542;2024-02-16T14:54:18;17.40;97.00
45012;DHT22;63444;48.148;11.542;2024-02-16T14:56:44;17.40;97.00
45012;DHT22;63444;48.148;11.542;2024-02-16T14:59:09;17.40;97.00
45012;DHT22;63444;48.148;11.542;2024-02-16T15:01:36;17.40;97.00
45012;DHT22;63444;48.148;11.542;2024-02-16T15:04:03;17.30;97.10
45012;DHT22;63444;48.148;11.542;2024-02-16T15:06:29;17.30;97.20
45012;DHT22;63444;48.148;11.542;2024-02-16T15:08:58;17.30;97.30
45012;DHT22;63444;48.148;11.542;2024-02-16T15:11:24;17.30;97.50
45012;DHT22;63444;48.148;11.542;2024-02-16T15:13:50;17.30;97.40
45012;DHT22;63444;48.148;11.542;2024-02-16T15:16:15;17.30;97.40
45012;DHT22;63444;48.148;11.542;2024-02-16T15:18:41;17.20;97.30
45012;DHT22;63444;48.148;11.542;2024-02-16T15:21:07;17.20;97.30
45012;DHT22;63444;48.148;11.542;2024-02-16T15:23:32;17.10;97.20
45012;DHT22;63444;48.148;11.542;2024-02-16T15:25:58;17.10;97.30
45012;DHT22;63444;48.148;11.542;2024-02-16T15:28:25;17.00;97.40